Mt. Soledad (578) Station Data

Red Flag Warning: No
Fire Weather Zone: 243
SDGE Region: Beach Cities
Lat/Lon: 32.814/-117.241

Observations

Time Wind Speed/Gust Temp(F) RH Fuel Moist Fuel Temp(F) Dewpt(F) Tmax(F) Tmin(F) Accum Precip 10-min Precip SL Press(mb)
3/29 8:00am 11 1 G 2 61° 53% 11.5% 63.8° 44° 62° 53.6° - - 1019.0
3/29 7:50am 63 1 G 2 60° 53% 11.5% 61.68° 43° 61.2° 53.6° - - 1019.0
3/29 7:40am 101 0 G 2 60° 53% 11.5% 59.77° 42° 60.6° 53.6° - - 1019.0
3/29 7:30am 357 1 G 3 59° 53% 11.4% 57.94° 42° 60° 53.6° - - 1018.0
3/29 7:20am 331 3 G 5 58° 55% 11.4% 55.47° 42° 60° 53.6° - - 1018.0
3/29 7:10am 336 3 G 5 58° 56% 11.3% 52.75° 42° 60° 53.6° - - 1018.0
3/29 7:00am 287 3 G 5 57° 54% 11.3% 53.26° 41° 60° 53.6° - - 1018.0
3/29 6:50am 307 3 G 5 57° 54% 11.3% 53.2° 40° 60° 53.6° - - 1018.0
3/29 6:40am 328 4 G 6 56° 56% 11.3% 52.47° 41° 60° 53.6° - - 1018.0
3/29 6:30am 356 4 G 7 55° 57% 11.3% 51.58° 41° 60° 53.6° - - 1018.0
3/29 6:20am 0 3 G 6 55° 59% 11.3% 49.6° 41° 60° 53.6° - - 1018.0
3/29 6:10am 34 3 G 6 55° 60% 11.3% 49.71° 41° 60° 53.6° - - 1018.0
3/29 6:00am 301 1 G 3 55° 60% 11.2% 49.64° 42° 60° 53.6° - - 1018.0
3/29 5:50am 198 1 G 2 55° 61% 11.2% 49.23° 42° 60° 53.6° - - 1018.0
3/29 5:40am 24 1 G 3 56° 57% 11.1% 49.66° 42° 60° 53.6° - - 1018.0
3/29 5:30am 316 3 G 6 57° 58% 11.2% 51.44° 42° 60° 53.6° - - 1018.0
3/29 5:20am 303 3 G 4 55° 61% 11.2% 51.09° 42° 60° 53.6° - - 1018.0
3/29 5:10am 345 3 G 4 56° 59% 11.1% 49.82° 42° 60° 53.6° - - 1018.0
3/29 5:00am 340 1 G 3 55° 62% 11% 48.53° 42° 60° 53.6° - - 1018.0
3/29 4:50am 107 0 G 3 55° 61% 10.9% 48.57° 42° 60° 53.7° - - 1018.0
3/29 4:40am 287 1 G 2 57° 57% 10.9% 49.87° 42° 60° 54.9° - - 1018.0
3/29 4:30am 254 2 G 5 57° 57% 11% 51.23° 41° 60° 54.9° - - 1018.0
3/29 4:20am 352 3 G 5 57° 57% 10.9% 50.64° 41° 60° 54.9° - - 1018.0
3/29 4:10am 356 1 G 3 56° 61% 10.9% 50.01° 42° 60° 54.9° - - 1018.0
3/29 4:00am 202 0 G 2 56° 59% 10.8% 49.61° 42° 60° 54.9° - - 1018.0
3/29 3:50am 261 2 G 3 57° 58% 10.7% 50.5° 43° 60° 55.3° - - 1018.0
3/29 3:40am 307 2 G 3 57° 57% 10.7% 50.25° 42° 60° 55.3° - - 1018.0
3/29 3:30am 299 2 G 3 56° 58% 10.6% 50.81° 42° 60° 55.3° - - 1018.0
3/29 3:20am 278 2 G 4 56° 58% 10.6% 52.15° 42° 60° 55.4° - - 1018.0
3/29 3:10am 322 3 G 8 57° 56% 10.7% 53.5° 42° 60° 55.6° - - 1018.0
3/29 3:00am 10 6 G 9 57° 57% 10.7% 53.15° 42° 60° 55.6° - - 1018.0
3/29 2:50am 12 5 G 7 57° 58% 10.7% 52.89° 42° 60° 55.6° - - 1018.0
3/29 2:40am 4 3 G 7 57° 57% 10.6% 52.61° 42° 60° 55.6° - - 1018.0
3/29 2:30am 320 2 G 5 56° 58% 10.6% 53.64° 42° 60° 55.6° - - 1018.0
3/29 2:20am 336 2 G 4 58° 52% 10.5% 52.27° 40° 60° 56.5° - - 1018.0
3/29 2:10am 303 1 G 2 58° 48% 10.4% 52.34° 38° 60° 57.1° - - 1018.0
3/29 2:00am 291 3 G 4 58° 48% 10.5% 54.24° 38° 60° 57.1° - - 1018.0
3/29 1:50am 328 4 G 7 59° 48% 10.6% 54.74° 39° 60° 57.8° - - 1018.0
3/29 1:40am 16 6 G 7 59° 47% 10.6% 54.28° 39° 60° 57.8° - - 1018.0
3/29 1:30am 6 5 G 7 59° 46% 10.6% 53.79° 38° 60° 57.8° - - 1018.0
3/29 1:20am 10 5 G 6 59° 47% 10.6% 53.79° 39° 59.5° 57.8° - - 1018.0
3/29 1:10am 15 6 G 8 59° 48% 10.6% 54.02° 39° 59.5° 57.8° - - 1018.0
3/29 1:00am 25 5 G 7 58° 49% 10.6% 54.06° 39° 59.5° 57.8° - - 1018.0
3/29 12:50am 24 6 G 8 58° 50% 10.7% 54.15° 40° 59.5° 57.8° - - 1018.0
3/29 12:40am 30 5 G 6 58° 50% 10.7% 53.8° 40° 59.5° 57.8° - - 1018.0
3/29 12:30am 27 6 G 7 58° 51% 10.7% 54.37° 40° 59.5° 57.8° - - 1018.0
3/29 12:20am 36 6 G 7 58° 55% 10.7% 54.1° 43° 59.5° 57.8° - - 1019.0
3/29 12:10am 33 6 G 8 59° 52% 10.7% 53.88° 41° 59.5° 58.2° - - 1019.0
3/29 12:00am 29 4 G 7 57° 53% 10.7% 52.79° 40° 68° 50.6° - - 1019.0
3/28 11:50pm 25 2 G 3 58° 53% 10.7% 52.74° 40° 68° 50.6° - - 1019.0
3/28 11:40pm 340 1 G 3 58° 54% 10.6% 52.36° 41° 68° 50.6° - - 1019.0
3/28 11:30pm 14 1 G 3 58° 53% 10.7% 52.99° 41° 68° 50.6° - - 1019.0
3/28 11:20pm 10 1 G 3 58° 55% 10.7% 52.86° 42° 68° 50.6° - - 1019.0
3/28 11:10pm 356 2 G 3 59° 55% 10.7% 53.12° 43° 68° 50.6° - - 1019.0
3/28 11:00pm 325 2 G 4 58° 60% 10.7% 53.23° 45° 68° 50.6° - - 1019.0
3/28 10:50pm 325 2 G 4 58° 64% 10.6% 52.85° 46° 68° 50.6° - - 1019.0
3/28 10:40pm 18 1 G 2 58° 65% 10.5% 52.52° 46° 68° 50.6° - - 1019.0
3/28 10:30pm 359 0 G 1 58° 60% 10.5% 52.72° 44° 68° 50.6° - - 1019.0
3/28 10:20pm 8 2 G 3 60° 57% 10.4% 52.99° 44° 68° 50.6° - - 1019.0
3/28 10:10pm 352 2 G 3 59° 57% 10.4% 53.82° 44° 68° 50.6° - - 1019.0
3/28 10:00pm 318 2 G 3 58° 60% 10.4% 53.98° 44° 68° 50.6° - - 1019.0
3/28 9:50pm 307 1 G 2 58° 60% 10.3% 53.74° 44° 68° 50.6° - - 1019.0
3/28 9:40pm 35 1 G 2 58° 60% 10.2% 52.48° 44° 68° 50.6° - - 1019.0
3/28 9:30pm 53 2 G 4 59° 56% 10.1% 52.21° 44° 68° 50.6° - - 1019.0
3/28 9:20pm 45 4 G 5 60° 56% 10.1% 53.01° 44° 68° 50.6° - - 1019.0
3/28 9:10pm 35 3 G 4 60° 54% 10% 53.19° 44° 68° 50.6° - - 1018.0
3/28 9:00pm 20 4 G 6 61° 52% 10% 53.91° 43° 68° 50.6° - - 1018.0
3/28 8:50pm 21 3 G 4 61° 51% 9.9% 53.56° 43° 68° 50.6° - - 1018.0
3/28 8:40pm 26 2 G 3 61° 51% 9.9% 53.93° 42° 68° 50.6° - - 1018.0
3/28 8:30pm 354 1 G 3 60° 53% 9.8% 53.93° 43° 68° 50.6° - - 1018.0
3/28 8:20pm 355 1 G 2 61° 49% 9.8% 54.37° 41° 68° 50.6° - - 1018.0
3/28 8:10pm 349 1 G 2 60° 51% 9.7% 54.7° 42° 68° 50.6° - - 1018.0
3/28 8:00pm 233 0 G 1 61° 50% 9.6% 55.68° 42° 68° 50.6° - - 1018.0
3/28 7:50pm 282 1 G 2 61° 49% 9.7% 58.2° 42° 68° 50.6° - - 1018.0
3/28 7:40pm 223 0 G 2 61° 51% 9.7% 56.89° 43° 68° 50.6° - - 1018.0
3/28 7:30pm 346 2 G 4 62° 49% 9.5% 56.25° 42° 68° 50.6° - - 1018.0
3/28 7:20pm 348 2 G 4 62° 51% 9.5% 57.01° 43° 68° 50.6° - - 1017.0
3/28 7:10pm 303 0 G 1 63° 46% 9.4% 58.16° 42° 68° 50.6° - - 1017.0
3/28 7:00pm 299 2 G 3 63° 44% 9.5% 61.27° 41° 68° 50.6° - - 1017.0
3/28 6:50pm 275 1 G 4 64° 42% 9.5% 61.86° 40° 68° 50.6° - - 1017.0
3/28 6:40pm 305 2 G 4 64° 41% 9.5% 62.49° 40° 68° 50.6° - - 1017.0
3/28 6:30pm 329 3 G 6 64° 44% 9.6% 63.03° 42° 68° 50.6° - - 1017.0
3/28 6:20pm 314 3 G 7 64° 45% 9.6% 64.27° 43° 68° 50.6° - - 1017.0
3/28 6:10pm 304 4 G 7 64° 44% 9.7% 64.75° 42° 68° 50.6° - - 1017.0
3/28 6:00pm 306 5 G 9 65° 45% 9.6% 65.55° 43° 68° 50.6° - - 1017.0
3/28 5:50pm 318 4 G 9 65° 46% 9.7% 66.68° 44° 68° 50.6° - - 1017.0
3/28 5:40pm 309 5 G 10 65° 46% 9.8% 66.83° 44° 68° 50.6° - - 1017.0
3/28 5:30pm 297 7 G 13 65° 45% 9.9% 67.26° 43° 68° 50.6° - - 1017.0
3/28 5:20pm 292 4 G 10 65° 47% 10% 68.08° 45° 68° 50.6° - - 1017.0
3/28 5:10pm 298 5 G 12 65° 47% 10% 67.72° 44° 68° 50.6° - - 1017.0
3/28 5:00pm 301 6 G 12 65° 47% 9.9% 67.74° 45° 68° 50.6° - - 1017.0
3/28 4:50pm 294 6 G 13 65° 51% 10.1% 68.56° 47° 68° 50.6° - - 1017.0
3/28 4:40pm 289 5 G 12 66° 51% 10.3% 69.69° 47° 68° 50.6° - - 1017.0
3/28 4:30pm 293 7 G 13 65° 47% 10.3% 69.01° 45° 68° 50.6° - - 1017.0
3/28 4:20pm 286 5 G 9 65° 50% 10.4% 69.93° 46° 68° 50.6° - - 1017.0
3/28 4:10pm 272 5 G 13 65° 52% 10.4% 69.84° 47° 68° 50.6° - - 1017.0
3/28 4:00pm 289 7 G 13 65° 54% 10.4% 69.97° 48° 68° 50.6° - - 1017.0
3/28 3:50pm 283 7 G 12 66° 49% 10.5% 71.15° 46° 68° 50.6° - - 1017.0
3/28 3:40pm 295 8 G 13 66° 46% 10.5% 71.54° 45° 68° 50.6° - - 1017.0
3/28 3:30pm 296 6 G 12 66° 46% 10.7% 73.42° 45° 68° 50.6° - - 1017.0
3/28 3:20pm 288 5 G 12 66° 45% 10.8% 74.6° 44° 68° 50.6° - - 1017.0
3/28 3:10pm 293 7 G 12 66° 46% 10.9% 74.23° 45° 68° 50.6° - - 1017.0
3/28 3:00pm 291 6 G 13 67° 44% 11.1% 75.27° 44° 68° 50.6° - - 1017.0
3/28 2:50pm 289 5 G 11 67° 48% 11.2% 76.6° 46° 68° 50.6° - - 1018.0
3/28 2:40pm 308 7 G 11 66° 48% 11.2% 74.76° 46° 67.8° 50.6° - - 1018.0
3/28 2:30pm 294 6 G 12 67° 46% 11.3% 75.25° 45° 67.8° 50.6° - - 1018.0
3/28 2:20pm 290 5 G 10 66° 47% 11.5% 76.78° 45° 67.5° 50.6° - - 1018.0
3/28 2:10pm 298 6 G 13 66° 49% 11.6% 76.38° 46° 67.5° 50.6° - - 1018.0
3/28 2:00pm 290 7 G 12 66° 51% 11.7% 76.16° 47° 67.5° 50.6° - - 1018.0
3/28 1:50pm 283 6 G 13 66° 47% 11.7% 75.41° 45° 67.5° 50.6° - - 1018.0
3/28 1:40pm 299 7 G 14 66° 46% 11.8% 74.91° 44° 67.5° 50.6° - - 1018.0
3/28 1:30pm 296 6 G 12 67° 44% 11.9% 75.35° 44° 67.5° 50.6° - - 1018.0
3/28 1:20pm 283 5 G 11 67° 45% 12.2% 75.46° 45° 67.2° 50.6° - - 1018.0
3/28 1:10pm 303 6 G 11 65° 43% 12.3% 73.67° 42° 66.8° 50.6° - - 1019.0
3/28 1:00pm 294 6 G 12 65° 48% 12.5% 72.03° 45° 66° 50.6° - - 1019.0
3/28 12:50pm 275 4 G 11 65° 56% 12.8% 73.35° 49° 65.5° 50.6° - - 1019.0
3/28 12:40pm 263 5 G 11 63° 61% 12.9% 71.48° 50° 65.1° 50.6° - - 1019.0
3/28 12:30pm 231 5 G 10 63° 70% 13.2% 71.32° 53° 65.1° 50.6° - - 1019.0
3/28 12:20pm 227 5 G 10 62° 74% 13.4% 70.84° 54° 65.1° 50.6° - - 1019.0
3/28 12:10pm 226 5 G 11 62° 74% 13.6% 70.41° 54° 65.1° 50.6° - - 1019.0
3/28 12:00pm 235 5 G 10 62° 73% 13.6% 69.63° 54° 65.1° 50.6° - - 1019.0
3/28 11:50am 217 5 G 10 62° 74% 13.7% 69.48° 53° 65.1° 50.6° - - 1019.0
3/28 11:40am 227 5 G 11 61° 74% 13.7% 69.31° 53° 65.1° 50.6° - - 1019.0
3/28 11:30am 229 6 G 11 62° 71% 13.7% 69.25° 53° 65.1° 50.6° - - 1020.0
3/28 11:20am 273 4 G 8 64° 60% 13.8% 70.44° 50° 65.1° 50.6° - - 1019.0
3/28 11:10am 301 3 G 8 64° 56% 14% 69.4° 48° 65° 50.6° - - 1019.0
3/28 11:00am 283 3 G 7 63° 62% 14.2% 68.34° 50° 65° 50.6° - - 1020.0
3/28 10:50am 295 4 G 8 63° 59% 14.4% 68.51° 49° 65° 50.6° - - 1020.0
3/28 10:40am 220 4 G 9 63° 66% 14.9% 69.24° 51° 65° 50.6° - - 1020.0
3/28 10:30am 313 2 G 5 64° 55% 15% 69.48° 48° 65° 50.6° - - 1020.0
3/28 10:20am 337 4 G 10 63° 60% 15.4% 67.43° 49° 63.7° 50.6° - - 1019.0
3/28 10:10am 274 3 G 6 62° 68% 15.7% 66.85° 51° 63° 50.6° - - 1019.0
3/28 10:00am 219 3 G 7 60° 75% 16.1% 66.3° 52° 61.4° 50.6° - - 1019.0
3/28 9:50am 228 4 G 9 60° 74% 16.3% 65.85° 52° 61.4° 50.6° - - 1020.0
3/28 9:40am 274 3 G 6 61° 74% 16.5% 66.14° 52° 61.4° 50.6° - - 1019.0
3/28 9:30am 224 2 G 5 60° 75% 16.8% 66.27° 52° 61.3° 50.6° - - 1019.0
3/28 9:20am 184 3 G 6 60° 75% 17.2% 66° 52° 61.3° 50.6° - - 1019.0
3/28 9:10am 285 1 G 4 61° 76% 17.5% 66° 53° 61.3° 50.6° - - 1019.0
3/28 9:00am 37 1 G 3 60° 77% 17.8% 65.14° 52° 60.6° 50.6° - - 1019.0
3/28 8:50am 15 2 G 5 58° 79% 18% 63.11° 52° 59.3° 50.6° - - 1019.0
3/28 8:40am 38 2 G 5 58° 80% 18.3% 62.3° 51° 58.3° 50.6° - - 1019.0
3/28 8:30am 35 2 G 4 57° 80% 18.6% 61.89° 51° 58.2° 50.6° - - 1019.0
3/28 8:20am 53 2 G 4 57° 80% 18.8% 61.47° 51° 58.2° 50.6° - - 1019.0
3/28 8:10am 50 3 G 4 57° 82% 18.9% 60.2° 51° 57.7° 50.6° - - 1019.0
3/28 8:00am 17 3 G 4 56° 84% 19% 58.15° 51° 56.7° 50.6° - - 1019.0
3/28 7:50am 22 3 G 5 55° 85% 19.1% 56.5° 51° 56.1° 50.6° - - 1019.0
3/28 7:40am 10 3 G 5 54° 87% 19.1% 54.42° 50° 56.1° 50.6° - - 1019.0
3/28 7:30am 35 4 G 6 53° 88% 19.1% 52.87° 50° 56.1° 50.6° - - 1019.0
3/28 7:20am 14 4 G 4 53° 89% 19% 51.08° 49° 56.1° 50.6° - - 1018.0
3/28 7:10am 5 4 G 4 52° 90% 18.9% 49.76° 49° 56.1° 50.6° - - 1018.0
3/28 7:00am 16 4 G 6 52° 90% 18.8% 49.69° 49° 56.1° 50.6° - - 1018.0
3/28 6:50am 42 4 G 6 51° 91% 18.7% 48.96° 49° 56.1° 50.6° - - 1018.0
3/28 6:40am 5 2 G 4 52° 90% 18.6% 48.76° 49° 56.1° 50.8° - - 1018.0
3/28 6:30am 30 5 G 7 52° 90% 18.6% 49.39° 49° 56.1° 51.1° - - 1018.0
3/28 6:20am 9 3 G 5 52° 91% 18.5% 49.6° 49° 56.1° 51.1° - - 1018.0
3/28 6:10am 11 4 G 6 52° 91% 18.4% 49.87° 49° 56.1° 51.4° - - 1018.0
3/28 6:00am 19 4 G 6 52° 91% 18.3% 49.66° 50° 56.1° 51.4° - - 1018.0